sensor_id;sensor_type;location;lat;lon;timestamp;P1;durP1;ratioP1;P2;durP2;ratioP2
34499;SDS011;20745;50.882;6.962;2022-08-19T00:02:29;19.33;;;8.10;;
34499;SDS011;20745;50.882;6.962;2022-08-19T00:05:17;17.60;;;7.97;;
34499;SDS011;20745;50.882;6.962;2022-08-19T00:08:05;17.25;;;8.52;;
34499;SDS011;20745;50.882;6.962;2022-08-19T00:10:53;18.77;;;8.18;;
34499;SDS011;20745;50.882;6.962;2022-08-19T00:13:40;18.10;;;7.57;;
34499;SDS011;20745;50.882;6.962;2022-08-19T00:16:28;18.13;;;7.93;;
34499;SDS011;20745;50.882;6.962;2022-08-19T00:19:15;15.57;;;7.55;;
34499;SDS011;20745;50.882;6.962;2022-08-19T00:22:03;16.50;;;7.60;;
34499;SDS011;20745;50.882;6.962;2022-08-19T00:24:52;17.40;;;7.70;;
34499;SDS011;20745;50.882;6.962;2022-08-19T00:27:40;16.05;;;7.47;;
34499;SDS011;20745;50.882;6.962;2022-08-19T00:30:28;17.80;;;7.00;;
34499;SDS011;20745;50.882;6.962;2022-08-19T00:33:15;16.75;;;7.70;;
34499;SDS011;20745;50.882;6.962;2022-08-19T00:36:04;20.67;;;7.88;;
34499;SDS011;20745;50.882;6.962;2022-08-19T00:38:54;17.33;;;7.68;;
34499;SDS011;20745;50.882;6.962;2022-08-19T00:41:43;17.88;;;7.63;;
34499;SDS011;20745;50.882;6.962;2022-08-19T00:44:35;14.85;;;7.35;;
34499;SDS011;20745;50.882;6.962;2022-08-19T00:47:22;19.57;;;8.57;;
34499;SDS011;20745;50.882;6.962;2022-08-19T00:50:13;17.67;;;8.38;;
34499;SDS011;20745;50.882;6.962;2022-08-19T00:53:03;17.60;;;8.15;;
34499;SDS011;20745;50.882;6.962;2022-08-19T00:55:51;19.10;;;8.40;;
34499;SDS011;20745;50.882;6.962;2022-08-19T00:58:41;19.25;;;8.55;;
34499;SDS011;20745;50.882;6.962;2022-08-19T01:01:29;19.92;;;8.93;;
34499;SDS011;20745;50.882;6.962;2022-08-19T01:04:16;19.42;;;8.80;;
34499;SDS011;20745;50.882;6.962;2022-08-19T01:07:04;19.48;;;9.10;;
34499;SDS011;20745;50.882;6.962;2022-08-19T01:09:51;18.88;;;8.95;;
34499;SDS011;20745;50.882;6.962;2022-08-19T01:12:39;17.10;;;8.38;;
34499;SDS011;20745;50.882;6.962;2022-08-19T01:15:29;19.33;;;9.35;;
34499;SDS011;20745;50.882;6.962;2022-08-19T01:18:20;20.08;;;9.73;;
34499;SDS011;20745;50.882;6.962;2022-08-19T01:21:26;22.00;;;10.13;;
34499;SDS011;20745;50.882;6.962;2022-08-19T01:24:24;20.83;;;9.85;;
34499;SDS011;20745;50.882;6.962;2022-08-19T01:27:12;20.45;;;9.88;;
34499;SDS011;20745;50.882;6.962;2022-08-19T01:29:59;21.30;;;10.20;;
34499;SDS011;20745;50.882;6.962;2022-08-19T01:32:46;20.58;;;9.77;;
34499;SDS011;20745;50.882;6.962;2022-08-19T01:35:34;18.55;;;9.00;;
34499;SDS011;20745;50.882;6.962;2022-08-19T01:38:24;19.75;;;9.32;;
34499;SDS011;20745;50.882;6.962;2022-08-19T01:41:13;20.65;;;8.88;;
34499;SDS011;20745;50.882;6.962;2022-08-19T01:44:00;23.15;;;10.05;;
34499;SDS011;20745;50.882;6.962;2022-08-19T01:47:05;23.70;;;10.25;;
34499;SDS011;20745;50.882;6.962;2022-08-19T01:49:54;26.48;;;10.07;;
34499;SDS011;20745;50.882;6.962;2022-08-19T01:52:42;20.15;;;9.43;;
34499;SDS011;20745;50.882;6.962;2022-08-19T01:55:30;19.83;;;10.30;;
34499;SDS011;20745;50.882;6.962;2022-08-19T01:58:19;20.88;;;10.13;;
34499;SDS011;20745;50.882;6.962;2022-08-19T02:01:09;20.55;;;9.88;;
34499;SDS011;20745;50.882;6.962;2022-08-19T02:03:57;22.17;;;10.20;;
34499;SDS011;20745;50.882;6.962;2022-08-19T02:06:45;20.70;;;10.23;;
34499;SDS011;20745;50.882;6.962;2022-08-19T02:09:32;21.63;;;9.77;;
34499;SDS011;20745;50.882;6.962;2022-08-19T02:12:20;20.90;;;10.32;;
34499;SDS011;20745;50.882;6.962;2022-08-19T02:15:08;23.20;;;10.38;;
34499;SDS011;20745;50.882;6.962;2022-08-19T02:17:56;23.08;;;10.80;;
34499;SDS011;20745;50.882;6.962;2022-08-19T02:20:43;22.15;;;10.68;;
34499;SDS011;20745;50.882;6.962;2022-08-19T02:23:32;24.98;;;12.15;;
34499;SDS011;20745;50.882;6.962;2022-08-19T02:26:19;23.20;;;11.68;;
34499;SDS011;20745;50.882;6.962;2022-08-19T02:29:08;22.15;;;11.57;;
34499;SDS011;20745;50.882;6.962;2022-08-19T02:31:56;28.38;;;10.55;;
34499;SDS011;20745;50.882;6.962;2022-08-19T02:34:43;23.30;;;11.48;;
34499;SDS011;20745;50.882;6.962;2022-08-19T02:37:33;23.80;;;11.20;;
34499;SDS011;20745;50.882;6.962;2022-08-19T02:40:39;20.40;;;9.68;;
34499;SDS011;20745;50.882;6.962;2022-08-19T02:43:28;22.00;;;10.80;;
34499;SDS011;20745;50.882;6.962;2022-08-19T02:46:22;21.98;;;10.02;;
34499;SDS011;20745;50.882;6.962;2022-08-19T02:49:11;22.67;;;10.32;;
34499;SDS011;20745;50.882;6.962;2022-08-19T02:52:00;21.50;;;10.80;;
34499;SDS011;20745;50.882;6.962;2022-08-19T02:54:49;22.20;;;10.40;;
34499;SDS011;20745;50.882;6.962;2022-08-19T02:57:36;22.10;;;10.13;;
34499;SDS011;20745;50.882;6.962;2022-08-19T03:00:24;23.05;;;11.35;;
34499;SDS011;20745;50.882;6.962;2022-08-19T03:03:11;24.60;;;10.75;;
34499;SDS011;20745;50.882;6.962;2022-08-19T03:06:06;20.67;;;10.60;;
34499;SDS011;20745;50.882;6.962;2022-08-19T03:08:56;22.15;;;11.13;;
34499;SDS011;20745;50.882;6.962;2022-08-19T03:11:44;23.38;;;11.48;;
34499;SDS011;20745;50.882;6.962;2022-08-19T03:14:34;24.67;;;11.40;;
34499;SDS011;20745;50.882;6.962;2022-08-19T03:17:22;21.63;;;11.73;;
34499;SDS011;20745;50.882;6.962;2022-08-19T03:20:10;23.55;;;11.73;;
34499;SDS011;20745;50.882;6.962;2022-08-19T03:22:57;21.52;;;10.65;;
34499;SDS011;20745;50.882;6.962;2022-08-19T03:25:46;25.95;;;11.35;;
34499;SDS011;20745;50.882;6.962;2022-08-19T03:28:49;21.70;;;12.13;;
34499;SDS011;20745;50.882;6.962;2022-08-19T03:31:45;23.85;;;11.55;;
34499;SDS011;20745;50.882;6.962;2022-08-19T03:34:38;23.23;;;11.48;;
34499;SDS011;20745;50.882;6.962;2022-08-19T03:37:26;23.55;;;11.15;;
34499;SDS011;20745;50.882;6.962;2022-08-19T03:40:13;22.92;;;11.20;;
34499;SDS011;20745;50.882;6.962;2022-08-19T03:43:02;21.80;;;10.70;;
34499;SDS011;20745;50.882;6.962;2022-08-19T03:45:59;21.45;;;11.40;;
34499;SDS011;20745;50.882;6.962;2022-08-19T03:48:47;24.20;;;11.88;;
34499;SDS011;20745;50.882;6.962;2022-08-19T03:51:41;23.67;;;12.68;;
34499;SDS011;20745;50.882;6.962;2022-08-19T03:54:29;26.80;;;11.95;;
34499;SDS011;20745;50.882;6.962;2022-08-19T03:57:16;26.20;;;12.63;;
34499;SDS011;20745;50.882;6.962;2022-08-19T04:00:04;21.95;;;12.07;;
34499;SDS011;20745;50.882;6.962;2022-08-19T04:03:01;23.23;;;12.00;;
34499;SDS011;20745;50.882;6.962;2022-08-19T04:05:48;20.93;;;11.17;;
34499;SDS011;20745;50.882;6.962;2022-08-19T04:08:36;22.27;;;12.02;;
34499;SDS011;20745;50.882;6.962;2022-08-19T04:11:24;21.80;;;12.88;;
34499;SDS011;20745;50.882;6.962;2022-08-19T04:14:31;24.20;;;11.75;;
34499;SDS011;20745;50.882;6.962;2022-08-19T04:17:20;23.92;;;11.48;;
34499;SDS011;20745;50.882;6.962;2022-08-19T04:20:09;22.17;;;11.18;;
34499;SDS011;20745;50.882;6.962;2022-08-19T04:22:57;24.15;;;12.02;;
34499;SDS011;20745;50.882;6.962;2022-08-19T04:25:44;21.92;;;11.55;;
34499;SDS011;20745;50.882;6.962;2022-08-19T04:28:31;22.40;;;12.25;;
34499;SDS011;20745;50.882;6.962;2022-08-19T04:31:23;23.50;;;12.10;;
34499;SDS011;20745;50.882;6.962;2022-08-19T04:34:14;25.80;;;12.40;;
34499;SDS011;20745;50.882;6.962;2022-08-19T04:37:05;26.73;;;14.52;;
34499;SDS011;20745;50.882;6.962;2022-08-19T04:39:58;27.92;;;13.65;;
34499;SDS011;20745;50.882;6.962;2022-08-19T04:43:05;26.55;;;14.35;;
34499;SDS011;20745;50.882;6.962;2022-08-19T04:45:52;26.27;;;14.38;;
34499;SDS011;20745;50.882;6.962;2022-08-19T04:48:46;28.38;;;14.80;;
34499;SDS011;20745;50.882;6.962;2022-08-19T04:51:35;24.15;;;14.40;;
34499;SDS011;20745;50.882;6.962;2022-08-19T04:54:24;26.20;;;14.40;;
34499;SDS011;20745;50.882;6.962;2022-08-19T04:57:25;28.63;;;14.27;;
34499;SDS011;20745;50.882;6.962;2022-08-19T05:00:13;26.80;;;14.15;;
34499;SDS011;20745;50.882;6.962;2022-08-19T05:03:01;28.80;;;14.85;;
34499;SDS011;20745;50.882;6.962;2022-08-19T05:05:54;28.77;;;14.30;;
34499;SDS011;20745;50.882;6.962;2022-08-19T05:08:42;32.50;;;15.30;;
34499;SDS011;20745;50.882;6.962;2022-08-19T05:11:34;30.20;;;15.00;;
34499;SDS011;20745;50.882;6.962;2022-08-19T05:14:25;27.60;;;15.75;;
34499;SDS011;20745;50.882;6.962;2022-08-19T05:17:16;29.95;;;15.68;;
34499;SDS011;20745;50.882;6.962;2022-08-19T05:20:14;30.10;;;16.15;;
34499;SDS011;20745;50.882;6.962;2022-08-19T05:23:20;32.65;;;17.73;;
34499;SDS011;20745;50.882;6.962;2022-08-19T05:26:09;35.47;;;17.85;;
34499;SDS011;20745;50.882;6.962;2022-08-19T05:28:57;33.05;;;20.52;;
34499;SDS011;20745;50.882;6.962;2022-08-19T05:31:47;41.40;;;25.60;;
34499;SDS011;20745;50.882;6.962;2022-08-19T05:34:36;42.92;;;29.73;;
34499;SDS011;20745;50.882;6.962;2022-08-19T05:37:25;47.20;;;29.10;;
34499;SDS011;20745;50.882;6.962;2022-08-19T05:40:33;41.03;;;29.25;;
34499;SDS011;20745;50.882;6.962;2022-08-19T05:43:27;45.30;;;29.52;;
34499;SDS011;20745;50.882;6.962;2022-08-19T05:46:24;41.80;;;27.83;;
34499;SDS011;20745;50.882;6.962;2022-08-19T05:53:42;38.97;;;27.55;;
34499;SDS011;20745;50.882;6.962;2022-08-19T05:56:33;37.67;;;27.02;;
34499;SDS011;20745;50.882;6.962;2022-08-19T05:59:25;38.13;;;27.73;;
34499;SDS011;20745;50.882;6.962;2022-08-19T06:02:12;38.80;;;27.25;;
34499;SDS011;20745;50.882;6.962;2022-08-19T06:05:02;39.53;;;26.90;;
34499;SDS011;20745;50.882;6.962;2022-08-19T06:07:51;41.17;;;28.75;;
34499;SDS011;20745;50.882;6.962;2022-08-19T06:10:41;41.67;;;28.20;;
34499;SDS011;20745;50.882;6.962;2022-08-19T06:13:29;41.65;;;27.42;;
34499;SDS011;20745;50.882;6.962;2022-08-19T06:16:21;44.63;;;28.35;;
34499;SDS011;20745;50.882;6.962;2022-08-19T06:19:22;41.83;;;27.05;;
34499;SDS011;20745;50.882;6.962;2022-08-19T06:22:44;45.72;;;29.52;;
34499;SDS011;20745;50.882;6.962;2022-08-19T06:25:38;42.45;;;26.35;;
34499;SDS011;20745;50.882;6.962;2022-08-19T06:28:29;42.97;;;26.95;;
34499;SDS011;20745;50.882;6.962;2022-08-19T06:31:18;42.28;;;29.80;;
34499;SDS011;20745;50.882;6.962;2022-08-19T06:34:12;42.00;;;28.63;;
34499;SDS011;20745;50.882;6.962;2022-08-19T06:37:00;47.72;;;29.85;;
34499;SDS011;20745;50.882;6.962;2022-08-19T06:39:49;41.10;;;27.83;;
34499;SDS011;20745;50.882;6.962;2022-08-19T06:42:37;45.88;;;29.50;;
34499;SDS011;20745;50.882;6.962;2022-08-19T06:45:41;43.17;;;27.42;;
34499;SDS011;20745;50.882;6.962;2022-08-19T06:48:29;38.83;;;26.95;;
34499;SDS011;20745;50.882;6.962;2022-08-19T06:51:23;40.00;;;27.33;;
34499;SDS011;20745;50.882;6.962;2022-08-19T06:54:16;48.90;;;30.50;;
34499;SDS011;20745;50.882;6.962;2022-08-19T06:57:06;40.80;;;27.50;;
34499;SDS011;20745;50.882;6.962;2022-08-19T06:59:54;45.25;;;30.15;;
34499;SDS011;20745;50.882;6.962;2022-08-19T07:02:43;40.30;;;25.40;;
34499;SDS011;20745;50.882;6.962;2022-08-19T07:05:43;42.83;;;26.48;;
34499;SDS011;20745;50.882;6.962;2022-08-19T07:08:32;37.00;;;25.02;;
34499;SDS011;20745;50.882;6.962;2022-08-19T07:11:20;34.50;;;21.88;;
34499;SDS011;20745;50.882;6.962;2022-08-19T07:14:10;38.58;;;23.95;;
34499;SDS011;20745;50.882;6.962;2022-08-19T07:17:06;35.13;;;24.20;;
34499;SDS011;20745;50.882;6.962;2022-08-19T07:19:56;34.05;;;23.73;;
34499;SDS011;20745;50.882;6.962;2022-08-19T07:22:51;33.05;;;22.38;;
34499;SDS011;20745;50.882;6.962;2022-08-19T07:25:39;40.03;;;24.97;;
34499;SDS011;20745;50.882;6.962;2022-08-19T07:28:27;37.28;;;24.70;;
34499;SDS011;20745;50.882;6.962;2022-08-19T07:31:19;40.85;;;25.20;;
34499;SDS011;20745;50.882;6.962;2022-08-19T07:34:10;35.70;;;23.75;;
34499;SDS011;20745;50.882;6.962;2022-08-19T07:37:00;43.30;;;25.05;;
34499;SDS011;20745;50.882;6.962;2022-08-19T07:39:47;38.30;;;25.10;;
34499;SDS011;20745;50.882;6.962;2022-08-19T07:42:36;40.67;;;26.77;;
34499;SDS011;20745;50.882;6.962;2022-08-19T07:45:23;48.73;;;27.40;;
34499;SDS011;20745;50.882;6.962;2022-08-19T07:48:11;37.80;;;25.38;;
34499;SDS011;20745;50.882;6.962;2022-08-19T07:50:59;43.72;;;26.25;;
34499;SDS011;20745;50.882;6.962;2022-08-19T07:53:51;38.58;;;25.90;;
34499;SDS011;20745;50.882;6.962;2022-08-19T07:56:39;40.33;;;26.58;;
34499;SDS011;20745;50.882;6.962;2022-08-19T07:59:26;42.00;;;26.67;;
34499;SDS011;20745;50.882;6.962;2022-08-19T08:02:15;40.63;;;27.43;;
34499;SDS011;20745;50.882;6.962;2022-08-19T08:05:02;40.53;;;26.63;;
34499;SDS011;20745;50.882;6.962;2022-08-19T08:08:10;39.00;;;26.38;;
34499;SDS011;20745;50.882;6.962;2022-08-19T08:11:19;40.33;;;25.10;;
34499;SDS011;20745;50.882;6.962;2022-08-19T08:14:27;43.40;;;28.35;;
34499;SDS011;20745;50.882;6.962;2022-08-19T08:17:30;45.28;;;27.33;;
34499;SDS011;20745;50.882;6.962;2022-08-19T08:20:35;41.30;;;25.60;;
34499;SDS011;20745;50.882;6.962;2022-08-19T08:23:23;41.10;;;26.85;;
34499;SDS011;20745;50.882;6.962;2022-08-19T08:26:16;47.25;;;26.95;;
34499;SDS011;20745;50.882;6.962;2022-08-19T08:29:06;40.50;;;26.00;;
34499;SDS011;20745;50.882;6.962;2022-08-19T08:31:59;42.15;;;25.83;;
34499;SDS011;20745;50.882;6.962;2022-08-19T08:34:46;41.90;;;25.65;;
34499;SDS011;20745;50.882;6.962;2022-08-19T08:37:38;44.00;;;25.95;;
34499;SDS011;20745;50.882;6.962;2022-08-19T08:40:47;44.97;;;29.27;;
34499;SDS011;20745;50.882;6.962;2022-08-19T08:43:38;45.67;;;29.20;;
34499;SDS011;20745;50.882;6.962;2022-08-19T08:46:41;49.85;;;30.05;;
34499;SDS011;20745;50.882;6.962;2022-08-19T08:52:39;54.85;;;32.67;;
34499;SDS011;20745;50.882;6.962;2022-08-19T08:55:32;54.70;;;33.40;;
34499;SDS011;20745;50.882;6.962;2022-08-19T09:01:40;53.08;;;33.00;;
34499;SDS011;20745;50.882;6.962;2022-08-19T09:04:28;49.75;;;31.17;;
34499;SDS011;20745;50.882;6.962;2022-08-19T09:07:28;53.13;;;32.50;;
34499;SDS011;20745;50.882;6.962;2022-08-19T09:13:44;56.30;;;33.70;;
34499;SDS011;20745;50.882;6.962;2022-08-19T09:16:36;52.30;;;31.60;;
34499;SDS011;20745;50.882;6.962;2022-08-19T09:19:23;52.67;;;30.73;;
34499;SDS011;20745;50.882;6.962;2022-08-19T09:22:11;46.78;;;29.10;;
34499;SDS011;20745;50.882;6.962;2022-08-19T09:24:58;44.80;;;29.52;;
34499;SDS011;20745;50.882;6.962;2022-08-19T09:27:46;47.35;;;28.05;;
34499;SDS011;20745;50.882;6.962;2022-08-19T09:30:36;44.13;;;27.65;;
34499;SDS011;20745;50.882;6.962;2022-08-19T09:33:27;50.75;;;30.63;;
34499;SDS011;20745;50.882;6.962;2022-08-19T09:36:16;39.80;;;23.48;;
34499;SDS011;20745;50.882;6.962;2022-08-19T09:39:20;37.78;;;23.13;;
34499;SDS011;20745;50.882;6.962;2022-08-19T09:42:25;38.22;;;23.50;;
34499;SDS011;20745;50.882;6.962;2022-08-19T09:48:09;40.15;;;23.33;;
34499;SDS011;20745;50.882;6.962;2022-08-19T09:51:05;37.92;;;22.15;;
34499;SDS011;20745;50.882;6.962;2022-08-19T09:54:01;39.30;;;23.73;;
34499;SDS011;20745;50.882;6.962;2022-08-19T09:56:52;35.55;;;18.67;;
34499;SDS011;20745;50.882;6.962;2022-08-19T09:59:41;34.28;;;17.77;;
34499;SDS011;20745;50.882;6.962;2022-08-19T10:02:30;30.52;;;17.95;;
34499;SDS011;20745;50.882;6.962;2022-08-19T10:05:32;26.33;;;15.45;;
34499;SDS011;20745;50.882;6.962;2022-08-19T10:11:38;30.27;;;16.25;;
34499;SDS011;20745;50.882;6.962;2022-08-19T10:14:38;28.02;;;15.13;;
34499;SDS011;20745;50.882;6.962;2022-08-19T10:17:26;28.25;;;16.55;;
34499;SDS011;20745;50.882;6.962;2022-08-19T10:20:19;34.35;;;19.23;;
34499;SDS011;20745;50.882;6.962;2022-08-19T10:23:10;27.52;;;13.45;;
34499;SDS011;20745;50.882;6.962;2022-08-19T10:25:59;28.73;;;15.43;;
34499;SDS011;20745;50.882;6.962;2022-08-19T10:28:49;27.40;;;15.38;;
34499;SDS011;20745;50.882;6.962;2022-08-19T10:31:40;27.02;;;16.23;;
34499;SDS011;20745;50.882;6.962;2022-08-19T10:34:48;28.10;;;15.75;;
34499;SDS011;20745;50.882;6.962;2022-08-19T10:37:44;28.02;;;14.90;;
34499;SDS011;20745;50.882;6.962;2022-08-19T10:40:43;23.58;;;14.00;;
34499;SDS011;20745;50.882;6.962;2022-08-19T10:43:30;25.17;;;13.05;;
34499;SDS011;20745;50.882;6.962;2022-08-19T10:46:22;28.05;;;15.82;;
34499;SDS011;20745;50.882;6.962;2022-08-19T10:49:13;28.27;;;16.55;;
34499;SDS011;20745;50.882;6.962;2022-08-19T10:52:00;21.55;;;11.82;;
34499;SDS011;20745;50.882;6.962;2022-08-19T10:55:13;20.40;;;10.90;;
34499;SDS011;20745;50.882;6.962;2022-08-19T10:58:51;25.00;;;13.93;;
34499;SDS011;20745;50.882;6.962;2022-08-19T11:01:39;20.88;;;11.07;;
34499;SDS011;20745;50.882;6.962;2022-08-19T11:04:28;26.52;;;13.40;;
34499;SDS011;20745;50.882;6.962;2022-08-19T11:07:15;25.67;;;13.93;;
34499;SDS011;20745;50.882;6.962;2022-08-19T11:10:03;24.77;;;13.75;;
34499;SDS011;20745;50.882;6.962;2022-08-19T11:12:56;23.25;;;11.63;;
34499;SDS011;20745;50.882;6.962;2022-08-19T11:15:43;22.35;;;12.18;;
34499;SDS011;20745;50.882;6.962;2022-08-19T11:18:33;20.63;;;12.68;;
34499;SDS011;20745;50.882;6.962;2022-08-19T11:21:26;22.77;;;13.20;;
34499;SDS011;20745;50.882;6.962;2022-08-19T11:24:23;20.27;;;11.18;;
34499;SDS011;20745;50.882;6.962;2022-08-19T11:27:12;21.77;;;12.00;;
34499;SDS011;20745;50.882;6.962;2022-08-19T11:29:59;17.45;;;9.70;;
34499;SDS011;20745;50.882;6.962;2022-08-19T11:32:47;18.25;;;9.02;;
34499;SDS011;20745;50.882;6.962;2022-08-19T11:35:38;20.88;;;9.80;;
34499;SDS011;20745;50.882;6.962;2022-08-19T11:38:27;21.40;;;10.02;;
34499;SDS011;20745;50.882;6.962;2022-08-19T11:41:14;20.20;;;10.63;;
34499;SDS011;20745;50.882;6.962;2022-08-19T11:44:04;21.92;;;11.45;;
34499;SDS011;20745;50.882;6.962;2022-08-19T11:46:54;17.75;;;9.45;;
34499;SDS011;20745;50.882;6.962;2022-08-19T11:49:42;29.10;;;8.73;;
34499;SDS011;20745;50.882;6.962;2022-08-19T11:52:29;19.23;;;9.68;;
34499;SDS011;20745;50.882;6.962;2022-08-19T11:55:17;21.90;;;10.88;;
34499;SDS011;20745;50.882;6.962;2022-08-19T11:58:04;16.85;;;8.35;;
34499;SDS011;20745;50.882;6.962;2022-08-19T12:01:05;18.80;;;9.35;;
34499;SDS011;20745;50.882;6.962;2022-08-19T12:03:54;19.60;;;9.70;;
34499;SDS011;20745;50.882;6.962;2022-08-19T12:06:43;21.65;;;9.65;;
34499;SDS011;20745;50.882;6.962;2022-08-19T12:09:31;17.30;;;8.85;;
34499;SDS011;20745;50.882;6.962;2022-08-19T12:12:19;20.30;;;9.48;;
34499;SDS011;20745;50.882;6.962;2022-08-19T12:15:07;22.48;;;11.00;;
34499;SDS011;20745;50.882;6.962;2022-08-19T12:17:55;20.52;;;11.15;;
34499;SDS011;20745;50.882;6.962;2022-08-19T12:20:43;20.40;;;10.95;;
34499;SDS011;20745;50.882;6.962;2022-08-19T12:23:32;20.90;;;8.70;;
34499;SDS011;20745;50.882;6.962;2022-08-19T12:26:20;21.15;;;8.80;;
34499;SDS011;20745;50.882;6.962;2022-08-19T12:29:08;19.98;;;8.85;;
34499;SDS011;20745;50.882;6.962;2022-08-19T12:31:56;17.38;;;7.43;;
34499;SDS011;20745;50.882;6.962;2022-08-19T12:34:50;19.55;;;8.32;;
34499;SDS011;20745;50.882;6.962;2022-08-19T12:37:38;18.92;;;9.65;;
34499;SDS011;20745;50.882;6.962;2022-08-19T12:40:45;20.00;;;9.18;;
34499;SDS011;20745;50.882;6.962;2022-08-19T12:43:34;15.70;;;7.25;;
34499;SDS011;20745;50.882;6.962;2022-08-19T12:46:24;17.63;;;7.75;;
34499;SDS011;20745;50.882;6.962;2022-08-19T12:49:12;15.45;;;6.68;;
34499;SDS011;20745;50.882;6.962;2022-08-19T12:52:19;17.60;;;7.32;;
34499;SDS011;20745;50.882;6.962;2022-08-19T12:55:09;19.27;;;7.00;;
34499;SDS011;20745;50.882;6.962;2022-08-19T12:57:58;18.55;;;8.68;;
34499;SDS011;20745;50.882;6.962;2022-08-19T13:00:49;19.27;;;10.10;;
34499;SDS011;20745;50.882;6.962;2022-08-19T13:03:37;21.63;;;10.57;;
34499;SDS011;20745;50.882;6.962;2022-08-19T13:06:27;22.00;;;10.15;;
34499;SDS011;20745;50.882;6.962;2022-08-19T13:09:15;19.23;;;8.82;;
34499;SDS011;20745;50.882;6.962;2022-08-19T13:12:02;21.05;;;10.20;;
34499;SDS011;20745;50.882;6.962;2022-08-19T13:14:55;18.40;;;9.30;;
34499;SDS011;20745;50.882;6.962;2022-08-19T13:17:42;18.30;;;8.55;;
34499;SDS011;20745;50.882;6.962;2022-08-19T13:20:29;17.30;;;8.18;;
34499;SDS011;20745;50.882;6.962;2022-08-19T13:23:17;18.48;;;8.55;;
34499;SDS011;20745;50.882;6.962;2022-08-19T13:26:05;18.92;;;9.45;;
34499;SDS011;20745;50.882;6.962;2022-08-19T13:31:59;17.90;;;7.72;;
34499;SDS011;20745;50.882;6.962;2022-08-19T13:35:05;24.83;;;7.70;;
34499;SDS011;20745;50.882;6.962;2022-08-19T13:37:53;19.65;;;8.05;;
34499;SDS011;20745;50.882;6.962;2022-08-19T13:40:41;18.88;;;8.13;;
34499;SDS011;20745;50.882;6.962;2022-08-19T13:43:28;18.48;;;8.32;;
34499;SDS011;20745;50.882;6.962;2022-08-19T13:46:16;17.98;;;7.75;;
34499;SDS011;20745;50.882;6.962;2022-08-19T13:49:03;16.00;;;7.65;;
34499;SDS011;20745;50.882;6.962;2022-08-19T13:51:51;17.20;;;7.15;;
34499;SDS011;20745;50.882;6.962;2022-08-19T13:54:38;15.55;;;7.22;;
34499;SDS011;20745;50.882;6.962;2022-08-19T13:57:25;21.20;;;8.15;;
34499;SDS011;20745;50.882;6.962;2022-08-19T14:00:14;16.38;;;7.30;;
34499;SDS011;20745;50.882;6.962;2022-08-19T14:03:06;20.88;;;8.88;;
34499;SDS011;20745;50.882;6.962;2022-08-19T14:05:55;17.33;;;7.78;;
34499;SDS011;20745;50.882;6.962;2022-08-19T14:08:43;17.75;;;8.18;;
34499;SDS011;20745;50.882;6.962;2022-08-19T14:11:32;17.98;;;7.90;;
34499;SDS011;20745;50.882;6.962;2022-08-19T14:14:19;16.95;;;7.07;;
34499;SDS011;20745;50.882;6.962;2022-08-19T14:17:07;19.42;;;6.65;;
34499;SDS011;20745;50.882;6.962;2022-08-19T14:19:59;18.50;;;7.30;;
34499;SDS011;20745;50.882;6.962;2022-08-19T14:22:57;15.70;;;6.93;;
34499;SDS011;20745;50.882;6.962;2022-08-19T14:25:44;16.00;;;7.57;;
34499;SDS011;20745;50.882;6.962;2022-08-19T14:28:33;17.00;;;7.43;;
34499;SDS011;20745;50.882;6.962;2022-08-19T14:31:20;14.77;;;6.40;;
34499;SDS011;20745;50.882;6.962;2022-08-19T14:34:16;20.58;;;7.07;;
34499;SDS011;20745;50.882;6.962;2022-08-19T14:37:03;18.20;;;7.13;;
34499;SDS011;20745;50.882;6.962;2022-08-19T14:39:50;15.10;;;5.95;;
34499;SDS011;20745;50.882;6.962;2022-08-19T14:42:38;18.58;;;7.25;;
34499;SDS011;20745;50.882;6.962;2022-08-19T14:45:27;16.17;;;6.85;;
34499;SDS011;20745;50.882;6.962;2022-08-19T14:48:15;15.90;;;7.03;;
34499;SDS011;20745;50.882;6.962;2022-08-19T14:51:06;15.52;;;6.03;;
34499;SDS011;20745;50.882;6.962;2022-08-19T14:53:53;15.88;;;5.82;;
34499;SDS011;20745;50.882;6.962;2022-08-19T14:56:41;13.13;;;5.07;;
34499;SDS011;20745;50.882;6.962;2022-08-19T14:59:28;13.88;;;4.45;;
34499;SDS011;20745;50.882;6.962;2022-08-19T15:02:15;10.85;;;4.00;;
34499;SDS011;20745;50.882;6.962;2022-08-19T15:05:21;13.68;;;4.47;;
34499;SDS011;20745;50.882;6.962;2022-08-19T15:08:09;12.38;;;4.22;;
34499;SDS011;20745;50.882;6.962;2022-08-19T15:16:35;11.38;;;3.58;;
34499;SDS011;20745;50.882;6.962;2022-08-19T15:19:29;15.05;;;4.32;;
34499;SDS011;20745;50.882;6.962;2022-08-19T15:22:23;13.48;;;3.67;;
34499;SDS011;20745;50.882;6.962;2022-08-19T15:25:26;7.63;;;3.10;;
34499;SDS011;20745;50.882;6.962;2022-08-19T15:32:20;17.40;;;4.47;;
34499;SDS011;20745;50.882;6.962;2022-08-19T15:35:44;14.07;;;4.03;;
34499;SDS011;20745;50.882;6.962;2022-08-19T15:38:54;10.50;;;3.92;;
34499;SDS011;20745;50.882;6.962;2022-08-19T15:45:16;15.32;;;3.50;;
34499;SDS011;20745;50.882;6.962;2022-08-19T15:48:08;10.48;;;3.25;;
34499;SDS011;20745;50.882;6.962;2022-08-19T15:50:56;8.60;;;3.03;;
34499;SDS011;20745;50.882;6.962;2022-08-19T15:53:49;13.52;;;3.60;;
34499;SDS011;20745;50.882;6.962;2022-08-19T15:56:38;8.05;;;2.90;;
34499;SDS011;20745;50.882;6.962;2022-08-19T15:59:51;9.40;;;3.30;;
34499;SDS011;20745;50.882;6.962;2022-08-19T16:02:57;15.40;;;3.22;;
34499;SDS011;20745;50.882;6.962;2022-08-19T16:06:12;9.65;;;3.20;;
34499;SDS011;20745;50.882;6.962;2022-08-19T16:09:12;10.35;;;3.08;;
34499;SDS011;20745;50.882;6.962;2022-08-19T16:12:02;11.77;;;3.53;;
34499;SDS011;20745;50.882;6.962;2022-08-19T16:14:51;9.65;;;3.28;;
34499;SDS011;20745;50.882;6.962;2022-08-19T16:17:39;12.82;;;3.35;;
34499;SDS011;20745;50.882;6.962;2022-08-19T16:20:27;12.15;;;3.10;;
34499;SDS011;20745;50.882;6.962;2022-08-19T16:23:16;9.50;;;2.58;;
34499;SDS011;20745;50.882;6.962;2022-08-19T16:26:03;9.07;;;2.83;;
34499;SDS011;20745;50.882;6.962;2022-08-19T16:28:54;9.43;;;2.40;;
34499;SDS011;20745;50.882;6.962;2022-08-19T16:31:44;7.03;;;2.47;;
34499;SDS011;20745;50.882;6.962;2022-08-19T16:34:32;7.57;;;2.53;;
34499;SDS011;20745;50.882;6.962;2022-08-19T16:37:20;7.32;;;3.03;;
34499;SDS011;20745;50.882;6.962;2022-08-19T16:40:09;12.73;;;3.00;;
34499;SDS011;20745;50.882;6.962;2022-08-19T16:42:57;8.98;;;2.60;;
34499;SDS011;20745;50.882;6.962;2022-08-19T16:45:44;9.40;;;2.60;;
34499;SDS011;20745;50.882;6.962;2022-08-19T16:48:32;11.95;;;2.58;;
34499;SDS011;20745;50.882;6.962;2022-08-19T16:51:19;5.63;;;1.88;;
34499;SDS011;20745;50.882;6.962;2022-08-19T16:54:08;5.10;;;2.15;;
34499;SDS011;20745;50.882;6.962;2022-08-19T16:56:56;4.85;;;1.75;;
34499;SDS011;20745;50.882;6.962;2022-08-19T16:59:43;9.88;;;2.42;;
34499;SDS011;20745;50.882;6.962;2022-08-19T17:02:35;6.47;;;1.92;;
34499;SDS011;20745;50.882;6.962;2022-08-19T17:05:23;9.02;;;2.35;;
34499;SDS011;20745;50.882;6.962;2022-08-19T17:08:10;10.45;;;2.85;;
34499;SDS011;20745;50.882;6.962;2022-08-19T17:10:58;8.00;;;2.20;;
34499;SDS011;20745;50.882;6.962;2022-08-19T17:14:04;6.70;;;2.08;;
34499;SDS011;20745;50.882;6.962;2022-08-19T17:16:51;7.97;;;1.80;;
34499;SDS011;20745;50.882;6.962;2022-08-19T17:19:39;6.30;;;1.75;;
34499;SDS011;20745;50.882;6.962;2022-08-19T17:22:28;7.77;;;1.90;;
34499;SDS011;20745;50.882;6.962;2022-08-19T17:25:15;6.78;;;1.75;;
34499;SDS011;20745;50.882;6.962;2022-08-19T17:28:07;5.32;;;2.10;;